Time;durP1;ratioP1;P1;durP2;ratioP2;P2;SDS_P1;SDS_P2;PMS_P1;PMS_P2;Temp;Humidity;BMP_temperature;BMP_pressure;BME280_temperature;BME280_humidity;BME280_pressure;Samples;Min_cycle;Max_cycle;Signal;HPM_P1;HPM_P2
2022/04/28 06:01:47;;;;;;;35.63;18.75;;;;;;;;;;5296758;23;20081;-84
2022/04/28 06:04:14;;;;;;;41.30;20.48;;;;;;;;;;4944486;28;20151;-83
2022/04/28 06:06:41;;;;;;;34.72;21.15;;;;;;;;;;4953184;28;20559;-83
2022/04/28 06:09:07;;;;;;;33.50;19.33;;;;;;;;;;4951323;28;20078;-84
2022/04/28 06:11:34;;;;;;;33.30;18.65;;;;;;;;;;4954325;28;20051;-83
2022/04/28 06:14:01;;;;;;;35.88;17.83;;;;;;;;;;4954216;28;20078;-83
2022/04/28 06:16:27;;;;;;;42.83;19.40;;;;;;;;;;4952851;28;20475;-83
2022/04/28 06:18:54;;;;;;;29.35;18.30;;;;;;;;;;4953783;28;20080;-82
2022/04/28 06:21:20;;;;;;;38.55;19.27;;;;;;;;;;4952992;28;20051;-82
2022/04/28 06:23:47;;;;;;;31.85;18.92;;;;;;;;;;4954284;28;20074;-82
2022/04/28 06:26:14;;;;;;;35.85;19.02;;;;;;;;;;4953203;28;20464;-82
2022/04/28 06:28:40;;;;;;;31.67;19.05;;;;;;;;;;4952525;28;20094;-82
2022/04/28 06:31:08;;;;;;;42.03;18.85;;;;;;;;;;4952307;28;20168;-81
2022/04/28 06:33:34;;;;;;;32.55;18.75;;;;;;;;;;4953274;28;20047;-82
2022/04/28 06:36:01;;;;;;;37.33;19.00;;;;;;;;;;4953403;28;20140;-83
2022/04/28 06:38:28;;;;;;;31.17;18.08;;;;;;;;;;4953139;28;20066;-83
2022/04/28 06:40:54;;;;;;;33.92;18.75;;;;;;;;;;4953376;28;20134;-82
2022/04/28 06:43:21;;;;;;;35.83;18.23;;;;;;;;;;4951503;28;20074;-82
2022/04/28 06:48:33;;;;;;;36.88;17.75;;;;;;;;;;4939747;28;20039;-83
2022/04/28 06:51:00;;;;;;;30.48;18.98;;;;;;;;;;4950656;28;20067;-83
2022/04/28 06:53:27;;;;;;;34.25;18.52;;;;;;;;;;4950806;28;20058;-83
2022/04/28 06:55:54;;;;;;;32.22;18.65;;;;;;;;;;4951526;28;20138;-81
2022/04/28 06:58:21;;;;;;;42.22;20.17;;;;;;;;;;4949736;28;20168;-80
2022/04/28 07:00:49;;;;;;;39.42;18.10;;;;;;;;;;4950876;28;20063;-81
2022/04/28 07:03:16;;;;;;;35.83;19.20;;;;;;;;;;4950808;28;20113;-80
2022/04/28 07:05:42;;;;;;;34.40;18.40;;;;;;;;;;4952256;28;20424;-87
2022/04/28 07:08:09;;;;;;;31.38;18.92;;;;;;;;;;4952040;28;20477;-81
2022/04/28 07:10:38;;;;;;;31.45;18.08;;;;;;;;;;4965534;28;20098;-82
2022/04/28 07:13:04;;;;;;;35.03;19.30;;;;;;;;;;4950523;28;20158;-82
2022/04/28 07:15:34;;;;;;;36.60;18.55;;;;;;;;;;4950968;28;20143;-81
2022/04/28 07:18:05;;;;;;;36.97;19.73;;;;;;;;;;4949609;28;20051;-81
2022/04/28 07:20:33;;;;;;;34.33;18.87;;;;;;;;;;4944912;28;20738;-81
2022/04/28 07:23:00;;;;;;;38.40;18.93;;;;;;;;;;4946375;28;20055;-81
2022/04/28 07:25:28;;;;;;;35.17;18.50;;;;;;;;;;4945675;28;20374;-80
2022/04/28 07:27:55;;;;;;;33.05;18.77;;;;;;;;;;4946298;28;20121;-81
2022/04/28 07:30:23;;;;;;;32.25;18.60;;;;;;;;;;4944170;28;20051;-81
2022/04/28 07:32:51;;;;;;;28.70;18.67;;;;;;;;;;4946374;28;20087;-81
2022/04/28 07:35:20;;;;;;;33.60;18.75;;;;;;;;;;4942955;28;20397;-82
2022/04/28 07:37:47;;;;;;;34.97;19.05;;;;;;;;;;4956976;28;20138;-83
2022/04/28 07:40:13;;;;;;;33.83;18.25;;;;;;;;;;4948019;28;20049;-82
2022/04/28 07:42:41;;;;;;;31.58;18.55;;;;;;;;;;4950696;28;20078;-83
2022/04/28 07:45:07;;;;;;;38.65;19.23;;;;;;;;;;4950542;28;20071;-82
2022/04/28 07:47:34;;;;;;;30.35;18.75;;;;;;;;;;4951287;28;20598;-83
2022/04/28 07:50:01;;;;;;;36.95;18.70;;;;;;;;;;4950570;28;20419;-83
2022/04/28 07:52:27;;;;;;;30.17;18.00;;;;;;;;;;4950289;28;20047;-82
2022/04/28 07:54:54;;;;;;;34.22;18.17;;;;;;;;;;4950848;28;20154;-82
2022/04/28 07:57:23;;;;;;;32.35;18.42;;;;;;;;;;4950216;28;20118;-82
2022/04/28 07:59:50;;;;;;;35.72;17.67;;;;;;;;;;4951152;28;20126;-83
2022/04/28 08:02:17;;;;;;;33.47;18.08;;;;;;;;;;4949889;28;20069;-82
2022/04/28 08:04:43;;;;;;;30.58;17.80;;;;;;;;;;4949800;28;20129;-82
2022/04/28 08:07:10;;;;;;;27.85;17.58;;;;;;;;;;4950097;28;20043;-82
2022/04/28 08:09:36;;;;;;;32.22;18.23;;;;;;;;;;4946808;28;20078;-82
2022/04/28 08:12:06;;;;;;;32.03;17.77;;;;;;;;;;4950174;28;20660;-82
2022/04/28 08:14:32;;;;;;;26.75;18.05;;;;;;;;;;4949810;29;20055;-82
2022/04/28 08:17:00;;;;;;;25.10;17.40;;;;;;;;;;4950590;28;20059;-82
2022/04/28 08:19:26;;;;;;;32.85;17.92;;;;;;;;;;4949911;28;20507;-82
2022/04/28 08:21:53;;;;;;;28.00;17.30;;;;;;;;;;4950819;28;20082;-82
2022/04/28 08:24:20;;;;;;;23.40;16.13;;;;;;;;;;4950362;28;20067;-82
2022/04/28 08:26:46;;;;;;;29.45;16.95;;;;;;;;;;4946470;28;20083;-82
2022/04/28 08:29:13;;;;;;;27.83;16.67;;;;;;;;;;4949492;28;20646;-81
2022/04/28 08:31:44;;;;;;;37.72;17.75;;;;;;;;;;4949222;28;20051;-82
2022/04/28 08:34:13;;;;;;;30.77;16.95;;;;;;;;;;4945678;28;20500;-83
2022/04/28 08:36:41;;;;;;;36.70;18.00;;;;;;;;;;4944874;28;20427;-82
2022/04/28 08:39:08;;;;;;;30.50;17.45;;;;;;;;;;4945465;28;20051;-81
2022/04/28 08:41:42;;;;;;;26.42;16.83;;;;;;;;;;4946603;28;20079;-82
2022/04/28 08:44:15;;;;;;;26.08;16.55;;;;;;;;;;4941151;28;20504;-82
2022/04/28 08:46:50;;;;;;;30.83;17.00;;;;;;;;;;4944639;28;20146;-81
2022/04/28 08:49:18;;;;;;;28.13;16.42;;;;;;;;;;4948344;28;20070;-82
2022/04/28 08:51:45;;;;;;;32.15;15.48;;;;;;;;;;4949625;28;20465;-84
2022/04/28 08:54:13;;;;;;;26.25;16.70;;;;;;;;;;4949719;28;20539;-81
2022/04/28 08:56:40;;;;;;;28.60;16.77;;;;;;;;;;4949528;28;20133;-83
2022/04/28 08:59:08;;;;;;;25.65;17.90;;;;;;;;;;4948933;28;20791;-84
2022/04/28 09:01:34;;;;;;;24.80;16.30;;;;;;;;;;4944669;28;20061;-83
2022/04/28 09:04:04;;;;;;;26.80;16.80;;;;;;;;;;4948325;28;20054;-82
2022/04/28 09:06:40;;;;;;;29.92;16.17;;;;;;;;;;4943233;28;20050;-79
2022/04/28 09:09:12;;;;;;;32.22;16.80;;;;;;;;;;4948456;28;20520;-79
2022/04/28 09:11:40;;;;;;;29.60;17.00;;;;;;;;;;4950413;28;20071;-79
2022/04/28 09:14:09;;;;;;;27.05;16.92;;;;;;;;;;4946982;28;20532;-79
2022/04/28 09:16:44;;;;;;;28.35;16.45;;;;;;;;;;4948742;28;20523;-79
2022/04/28 09:19:14;;;;;;;28.85;16.80;;;;;;;;;;4948768;28;20142;-81
2022/04/28 09:21:41;;;;;;;29.70;17.40;;;;;;;;;;4947752;28;20130;-83
2022/04/28 09:24:10;;;;;;;25.80;15.98;;;;;;;;;;4946362;28;20082;-81
2022/04/28 09:26:38;;;;;;;30.45;16.67;;;;;;;;;;4947789;28;20051;-81
2022/04/28 09:29:06;;;;;;;28.80;15.60;;;;;;;;;;4948318;28;20075;-80
2022/04/28 09:31:34;;;;;;;22.52;14.80;;;;;;;;;;4946521;28;20051;-82
2022/04/28 09:34:21;;;;;;;30.65;15.82;;;;;;;;;;4947868;28;20065;-79
2022/04/28 09:36:48;;;;;;;24.90;16.05;;;;;;;;;;4948927;28;20567;-80
2022/04/28 09:42:29;;;;;;;23.02;16.15;;;;;;;;;;4948108;28;20082;-80
2022/04/28 09:44:54;;;;;;;24.58;14.98;;;;;;;;;;4948881;28;20094;-80
2022/04/28 09:47:22;;;;;;;22.27;15.68;;;;;;;;;;4948030;28;20082;-80
2022/04/28 09:49:55;;;;;;;27.80;16.30;;;;;;;;;;4948531;28;20133;-82
2022/04/28 09:52:24;;;;;;;22.55;15.45;;;;;;;;;;4944355;28;20400;-79
2022/04/28 09:54:53;;;;;;;25.40;15.77;;;;;;;;;;4947853;28;20071;-80
2022/04/28 09:57:21;;;;;;;31.75;15.88;;;;;;;;;;4947613;28;20047;-80
2022/04/28 09:59:55;;;;;;;19.67;13.70;;;;;;;;;;4948613;28;20130;-81
2022/04/28 10:02:23;;;;;;;23.85;15.40;;;;;;;;;;4947887;28;20047;-82
2022/04/28 10:04:52;;;;;;;19.60;14.25;;;;;;;;;;4943639;28;20101;-81
2022/04/28 10:07:19;;;;;;;24.90;14.77;;;;;;;;;;4941092;28;20134;-83
2022/04/28 10:09:51;;;;;;;27.10;16.35;;;;;;;;;;4940181;28;20090;-81
2022/04/28 10:12:20;;;;;;;24.67;15.13;;;;;;;;;;4945857;28;20137;-81
2022/04/28 10:14:48;;;;;;;25.15;15.27;;;;;;;;;;4948548;28;20138;-81
2022/04/28 10:17:38;;;;;;;26.13;16.53;;;;;;;;;;4946932;28;20137;-83
2022/04/28 10:20:11;;;;;;;21.40;14.75;;;;;;;;;;4940132;28;20353;-82
2022/04/28 10:23:01;;;;;;;22.50;13.90;;;;;;;;;;4944965;28;20050;-83
2022/04/28 10:34:13;;;;;;;23.60;13.93;;;;;;;;;;4947424;28;20063;-80
2022/04/28 10:36:55;;;;;;;22.05;15.25;;;;;;;;;;4947325;28;20524;-79
2022/04/28 10:39:45;;;;;;;19.27;14.23;;;;;;;;;;4941660;28;20051;-80
2022/04/28 10:42:36;;;;;;;22.38;14.30;;;;;;;;;;4946775;28;20079;-80
2022/04/28 10:45:22;;;;;;;19.65;14.75;;;;;;;;;;4932774;28;20070;-80
2022/04/28 10:51:17;;;;;;;21.58;13.30;;;;;;;;;;4944187;28;20229;-80
2022/04/28 10:53:56;;;;;;;21.30;13.60;;;;;;;;;;4947679;28;20078;-79
2022/04/28 10:56:23;;;;;;;20.48;13.95;;;;;;;;;;4946058;28;20078;-80
2022/04/28 10:58:50;;;;;;;19.88;12.85;;;;;;;;;;4947861;28;20656;-79
2022/04/28 11:01:33;;;;;;;19.98;12.75;;;;;;;;;;4946502;28;20130;-80
2022/04/28 11:04:02;;;;;;;19.17;12.75;;;;;;;;;;4941004;28;20051;-84
2022/04/28 11:06:31;;;;;;;19.35;12.30;;;;;;;;;;4946016;28;20991;-83
2022/04/28 11:09:00;;;;;;;19.33;13.20;;;;;;;;;;4947106;28;20082;-83
2022/04/28 11:11:41;;;;;;;;;;;;;;;;;;4946700;28;20051;-83
2022/04/28 11:14:08;;;;;;;19.27;12.70;;;;;;;;;;4944200;28;19930;-84
2022/04/28 11:16:35;;;;;;;21.63;12.43;;;;;;;;;;4946147;28;20051;-85
2022/04/28 11:19:03;;;;;;;19.60;12.02;;;;;;;;;;4946556;28;20106;-85
2022/04/28 11:21:29;;;;;;;21.98;12.32;;;;;;;;;;4945792;28;20068;-83
2022/04/28 11:23:57;;;;;;;20.15;11.48;;;;;;;;;;4947603;28;20133;-83
2022/04/28 11:26:26;;;;;;;18.23;11.90;;;;;;;;;;4945193;28;20447;-82
2022/04/28 11:28:53;;;;;;;20.10;11.80;;;;;;;;;;4944131;28;20373;-81
2022/04/28 11:31:20;;;;;;;20.27;12.38;;;;;;;;;;4944964;28;20075;-82
2022/04/28 11:33:54;;;;;;;19.00;12.60;;;;;;;;;;4947507;28;20053;-84
2022/04/28 11:36:26;;;;;;;16.90;12.00;;;;;;;;;;4948472;28;20515;-86
2022/04/28 11:38:58;;;;;;;19.67;12.40;;;;;;;;;;4948637;28;20571;-85
2022/04/28 11:41:31;;;;;;;21.00;12.13;;;;;;;;;;4948438;28;20102;-81
2022/04/28 11:44:05;;;;;;;23.00;12.55;;;;;;;;;;4947790;28;20051;-85
2022/04/28 11:46:34;;;;;;;16.25;12.20;;;;;;;;;;4948176;28;20051;-83
2022/04/28 11:49:00;;;;;;;21.48;10.73;;;;;;;;;;4945990;28;20066;-86
2022/04/28 11:51:31;;;;;;;14.70;11.23;;;;;;;;;;4945637;28;20529;-84
2022/04/28 11:53:57;;;;;;;16.23;11.68;;;;;;;;;;4945830;28;20574;-85
2022/04/28 11:56:29;;;;;;;20.05;11.90;;;;;;;;;;4944373;28;20047;-82
2022/04/28 11:58:58;;;;;;;16.75;11.68;;;;;;;;;;4942846;28;20089;-84
2022/04/28 12:01:29;;;;;;;26.02;11.57;;;;;;;;;;4938927;28;20051;-86
2022/04/28 12:03:58;;;;;;;21.35;11.55;;;;;;;;;;4946085;28;20051;-86
2022/04/28 12:06:25;;;;;;;16.15;12.07;;;;;;;;;;4945742;28;20102;-86
2022/04/28 12:14:22;;;;;;;22.88;14.25;;;;;;;;;;4949955;28;20460;-85
2022/04/28 12:14:34;;;;;;;22.10;12.95;;;;;;;;;;4947483;28;20051;-86
2022/04/28 12:20:00;;;;;;;20.63;12.75;;;;;;;;;;4871602;29;20083;-86
2022/04/28 12:22:27;;;;;;;18.45;11.25;;;;;;;;;;4871109;29;20596;-86
2022/04/28 12:24:55;;;;;;;18.20;11.98;;;;;;;;;;4872592;29;20053;-87
2022/04/28 12:27:40;;;;;;;19.00;11.70;;;;;;;;;;4871737;29;20147;-86
2022/04/28 12:30:08;;;;;;;22.17;12.20;;;;;;;;;;4853945;29;20116;-85
2022/04/28 12:32:54;;;;;;;18.55;10.98;;;;;;;;;;4873539;29;20138;-86
2022/04/28 12:35:22;;;;;;;16.80;11.48;;;;;;;;;;4872593;29;20105;-85
2022/04/28 12:37:57;;;;;;;17.30;10.68;;;;;;;;;;4873213;29;20515;-85
2022/04/28 12:40:24;;;;;;;13.35;8.82;;;;;;;;;;4873375;29;20499;-86
2022/04/28 12:42:51;;;;;;;20.58;9.73;;;;;;;;;;4873678;29;20045;-86
2022/04/28 12:45:51;;;;;;;16.15;9.90;;;;;;;;;;4872498;29;20162;-85
2022/04/28 12:48:31;;;;;;;12.30;8.20;;;;;;;;;;4866769;29;20137;-84
2022/04/28 12:51:12;;;;;;;16.73;8.43;;;;;;;;;;4870195;29;20076;-84
2022/04/28 12:53:41;;;;;;;18.08;9.00;;;;;;;;;;4872584;29;20638;-85
2022/04/28 12:56:14;;;;;;;47.53;9.23;;;;;;;;;;4888453;28;20184;-84
2022/04/28 12:58:48;;;;;;;13.27;8.52;;;;;;;;;;4948544;28;20106;-85
2022/04/28 13:01:18;;;;;;;29.40;9.80;;;;;;;;;;4949640;28;20086;-84
2022/04/28 13:03:57;;;;;;;16.02;8.27;;;;;;;;;;4950134;28;20168;-85
2022/04/28 13:06:30;;;;;;;9.40;7.75;;;;;;;;;;4935161;28;20051;-85
2022/04/28 13:08:59;;;;;;;12.63;8.13;;;;;;;;;;4950266;28;20047;-85
2022/04/28 13:11:34;;;;;;;12.63;8.93;;;;;;;;;;4949702;28;20044;-85
2022/04/28 13:14:04;;;;;;;15.23;10.00;;;;;;;;;;4950498;28;20059;-85
2022/04/28 13:16:31;;;;;;;18.25;9.35;;;;;;;;;;4946603;28;20040;-85
2022/04/28 13:18:58;;;;;;;13.25;9.57;;;;;;;;;;4949555;28;20098;-86
2022/04/28 13:21:25;;;;;;;13.98;9.32;;;;;;;;;;4948998;28;20067;-85
2022/04/28 13:23:55;;;;;;;13.00;9.30;;;;;;;;;;4950337;28;20058;-85
2022/04/28 13:26:23;;;;;;;15.60;9.45;;;;;;;;;;4949485;28;20401;-85
2022/04/28 13:28:51;;;;;;;15.50;9.93;;;;;;;;;;4950253;28;20051;-84
2022/04/28 13:31:19;;;;;;;14.05;9.23;;;;;;;;;;4949609;28;20849;-85
2022/04/28 13:33:47;;;;;;;15.55;9.57;;;;;;;;;;4950270;28;20070;-85
2022/04/28 13:36:14;;;;;;;12.88;9.77;;;;;;;;;;4952488;28;20047;-84
2022/04/28 13:38:41;;;;;;;13.10;9.30;;;;;;;;;;4952479;28;20055;-85
2022/04/28 13:41:10;;;;;;;12.73;9.85;;;;;;;;;;4952690;28;20047;-86
2022/04/28 13:43:37;;;;;;;19.33;9.95;;;;;;;;;;4951827;28;20154;-87
2022/04/28 13:46:05;;;;;;;12.00;9.50;;;;;;;;;;4947717;28;20047;-86
2022/04/28 13:48:33;;;;;;;12.68;9.50;;;;;;;;;;4945593;28;20055;-85
2022/04/28 13:51:00;;;;;;;12.40;8.73;;;;;;;;;;4942552;29;20122;-85
2022/04/28 13:53:28;;;;;;;10.52;7.90;;;;;;;;;;4948776;28;20156;-84
2022/04/28 13:55:59;;;;;;;20.63;8.35;;;;;;;;;;4948585;28;20135;-84
2022/04/28 13:58:28;;;;;;;16.98;8.50;;;;;;;;;;4948479;28;20055;-83
2022/04/28 14:00:55;;;;;;;14.88;8.23;;;;;;;;;;4947146;28;20047;-84
2022/04/28 14:03:24;;;;;;;12.50;8.43;;;;;;;;;;4945802;28;20063;-87
2022/04/28 14:05:52;;;;;;;13.80;7.35;;;;;;;;;;4951763;28;20102;-87
2022/04/28 14:08:19;;;;;;;14.05;7.15;;;;;;;;;;4952806;28;20075;-86
2022/04/28 14:10:46;;;;;;;11.38;6.97;;;;;;;;;;4952311;28;20047;-85
2022/04/28 14:13:13;;;;;;;13.35;6.60;;;;;;;;;;4952203;28;20192;-84
2022/04/28 14:15:40;;;;;;;9.52;5.43;;;;;;;;;;4949079;28;20138;-83
2022/04/28 14:18:07;;;;;;;11.27;5.93;;;;;;;;;;4951134;28;20121;-84
2022/04/28 14:20:34;;;;;;;8.70;5.43;;;;;;;;;;4950967;29;20130;-83
2022/04/28 14:23:02;;;;;;;33.83;6.50;;;;;;;;;;4951439;28;20145;-87
2022/04/28 14:25:29;;;;;;;16.92;6.35;;;;;;;;;;4951974;28;20078;-83
2022/04/28 14:27:56;;;;;;;10.52;5.90;;;;;;;;;;4950829;28;20193;-83
2022/04/28 14:30:26;;;;;;;9.40;6.00;;;;;;;;;;4951086;28;20306;-85
2022/04/28 14:32:52;;;;;;;8.77;6.15;;;;;;;;;;4948159;28;20141;-86
2022/04/28 14:35:24;;;;;;;15.65;6.57;;;;;;;;;;4951068;28;20468;-87
2022/04/28 14:37:51;;;;;;;12.60;6.75;;;;;;;;;;4966439;28;20448;-86
2022/04/28 14:40:18;;;;;;;73.28;9.70;;;;;;;;;;4950442;28;20070;-85
2022/04/28 14:42:45;;;;;;;10.13;6.15;;;;;;;;;;4950663;28;20158;-86
2022/04/28 14:45:12;;;;;;;9.32;5.13;;;;;;;;;;4951269;28;20047;-85
2022/04/28 14:47:41;;;;;;;6.65;5.93;;;;;;;;;;4951084;28;20157;-85
2022/04/28 14:52:54;;;;;;;8.73;5.68;;;;;;;;;;4951921;28;20492;-90
2022/04/28 14:55:21;;;;;;;8.27;5.47;;;;;;;;;;4951447;28;20043;-85
2022/04/28 14:57:49;;;;;;;9.73;5.78;;;;;;;;;;4951966;28;20080;-86
2022/04/28 15:00:21;;;;;;;10.13;5.63;;;;;;;;;;4951402;28;20082;-85
2022/04/28 15:02:49;;;;;;;7.38;4.97;;;;;;;;;;4951458;28;20155;-87
2022/04/28 15:05:17;;;;;;;7.38;5.43;;;;;;;;;;4951118;28;20043;-82
2022/04/28 15:07:45;;;;;;;12.90;5.30;;;;;;;;;;4949946;28;20078;-87
2022/04/28 15:10:12;;;;;;;43.08;7.63;;;;;;;;;;4950822;28;20066;-87
2022/04/28 15:12:39;;;;;;;169.32;16.38;;;;;;;;;;4946374;28;20083;-86
2022/04/28 15:15:14;;;;;;;15.43;5.40;;;;;;;;;;4952078;28;20039;-88
2022/04/28 15:17:44;;;;;;;15.63;6.03;;;;;;;;;;4948774;28;20051;-86
2022/04/28 15:20:12;;;;;;;7.03;5.28;;;;;;;;;;4952020;28;20503;-87
2022/04/28 15:22:39;;;;;;;;;;;;;;;;;;4945284;28;20059;-88
2022/04/28 15:25:11;;;;;;;10.80;5.28;;;;;;;;;;4946870;28;19982;-89
2022/04/28 15:27:40;;;;;;;9.27;5.45;;;;;;;;;;4948037;28;20043;-88
2022/04/28 15:30:08;;;;;;;7.53;5.57;;;;;;;;;;4950306;28;20047;-87
2022/04/28 15:32:46;;;;;;;8.82;5.70;;;;;;;;;;4950719;28;20110;-87
2022/04/28 15:35:13;;;;;;;8.20;5.38;;;;;;;;;;4950982;28;20067;-89
2022/04/28 15:37:39;;;;;;;8.25;5.40;;;;;;;;;;4949475;28;20063;-87
2022/04/28 15:40:10;;;;;;;8.98;5.22;;;;;;;;;;4950849;28;20143;-91
2022/04/28 15:42:38;;;;;;;10.27;5.18;;;;;;;;;;4951760;28;20113;-88
2022/04/28 15:45:05;;;;;;;11.80;5.10;;;;;;;;;;4949232;28;20075;-88
2022/04/28 15:47:33;;;;;;;6.93;5.22;;;;;;;;;;4940856;28;20307;-85
2022/04/28 15:49:59;;;;;;;10.65;5.25;;;;;;;;;;4947889;28;20163;-88
2022/04/28 15:52:26;;;;;;;7.45;5.40;;;;;;;;;;4948864;28;20141;-86
2022/04/28 15:54:53;;;;;;;8.75;4.60;;;;;;;;;;4949221;28;20075;-89
2022/04/28 15:57:21;;;;;;;7.10;5.13;;;;;;;;;;4949605;28;20116;-88
2022/04/28 15:59:49;;;;;;;8.75;4.97;;;;;;;;;;4951287;28;20047;-89
2022/04/28 16:02:20;;;;;;;6.45;4.68;;;;;;;;;;4950574;28;20055;-89
2022/04/28 16:04:49;;;;;;;9.52;4.15;;;;;;;;;;4951961;28;20110;-88
2022/04/28 16:07:18;;;;;;;5.75;4.50;;;;;;;;;;4947915;28;20111;-87
2022/04/28 16:09:44;;;;;;;11.68;5.72;;;;;;;;;;4948208;28;20146;-87
2022/04/28 16:12:12;;;;;;;7.25;4.82;;;;;;;;;;4945429;28;20606;-87
2022/04/28 16:14:39;;;;;;;7.32;4.28;;;;;;;;;;4950176;28;20110;-87
2022/04/28 16:17:07;;;;;;;7.47;4.63;;;;;;;;;;4950150;28;20057;-89
2022/04/28 16:19:34;;;;;;;4.45;4.00;;;;;;;;;;4947567;28;20047;-88
2022/04/28 16:22:01;;;;;;;8.57;5.20;;;;;;;;;;4962379;28;20083;-86
2022/04/28 16:24:29;;;;;;;6.90;4.47;;;;;;;;;;4948929;28;20156;-89
2022/04/28 16:26:56;;;;;;;8.35;4.75;;;;;;;;;;4950903;28;20051;-89
2022/04/28 16:29:23;;;;;;;10.23;4.40;;;;;;;;;;4947509;28;20074;-87
2022/04/28 16:31:49;;;;;;;5.78;4.15;;;;;;;;;;4950007;28;20109;-89
2022/04/28 16:34:18;;;;;;;5.88;4.10;;;;;;;;;;4947918;28;20079;-89
2022/04/28 16:36:45;;;;;;;7.53;3.88;;;;;;;;;;4947469;28;20051;-88
2022/04/28 16:39:12;;;;;;;6.32;4.20;;;;;;;;;;4948662;28;20074;-88
2022/04/28 16:41:39;;;;;;;4.45;3.13;;;;;;;;;;4947928;28;20520;-89
2022/04/28 16:44:07;;;;;;;6.27;3.87;;;;;;;;;;4947193;28;20055;-87
2022/04/28 16:46:35;;;;;;;5.07;3.47;;;;;;;;;;4945864;28;20283;-88
2022/04/28 16:49:02;;;;;;;6.38;4.05;;;;;;;;;;4956326;28;20103;-87
2022/04/28 16:51:45;;;;;;;6.50;3.25;;;;;;;;;;4952404;28;20082;-88
2022/04/28 16:54:13;;;;;;;6.20;3.95;;;;;;;;;;4955763;28;20557;-88
2022/04/28 16:56:59;;;;;;;5.80;4.20;;;;;;;;;;4953678;28;20055;-89
2022/04/28 16:59:27;;;;;;;6.47;4.07;;;;;;;;;;4948761;28;20106;-88
2022/04/28 17:01:54;;;;;;;7.13;4.10;;;;;;;;;;4948884;28;20716;-88
2022/04/28 17:04:25;;;;;;;5.63;3.67;;;;;;;;;;4947013;28;20058;-90
2022/04/28 17:06:54;;;;;;;10.45;5.20;;;;;;;;;;4945508;28;20051;-89
2022/04/28 17:09:21;;;;;;;5.10;3.92;;;;;;;;;;4948551;28;20797;-89
2022/04/28 17:11:49;;;;;;;7.55;4.13;;;;;;;;;;4951233;28;20075;-87
2022/04/28 17:14:17;;;;;;;7.28;4.40;;;;;;;;;;4951975;28;20122;-88
2022/04/28 17:16:48;;;;;;;5.80;4.32;;;;;;;;;;4953799;28;20101;-88
2022/04/28 17:19:16;;;;;;;8.05;4.30;;;;;;;;;;4949516;28;20039;-87
2022/04/28 17:21:47;;;;;;;8.95;4.55;;;;;;;;;;4954684;28;20079;-88
2022/04/28 17:24:15;;;;;;;7.60;4.50;;;;;;;;;;4953682;28;20157;-88
2022/04/28 17:26:44;;;;;;;5.78;4.05;;;;;;;;;;4954713;28;20106;-89
2022/04/28 17:29:13;;;;;;;7.40;4.57;;;;;;;;;;4955667;28;20081;-89
2022/04/28 17:31:40;;;;;;;8.20;4.43;;;;;;;;;;4955988;28;20126;-89
2022/04/28 17:34:09;;;;;;;7.82;4.63;;;;;;;;;;4956042;28;20059;-88
2022/04/28 17:36:37;;;;;;;8.18;4.65;;;;;;;;;;4948983;28;20500;-89
2022/04/28 17:39:04;;;;;;;8.02;4.40;;;;;;;;;;4954517;28;20138;-86
2022/04/28 17:41:31;;;;;;;6.28;4.32;;;;;;;;;;4953581;28;20126;-87
2022/04/28 17:44:02;;;;;;;6.25;3.90;;;;;;;;;;4953944;28;20087;-86
2022/04/28 17:46:31;;;;;;;7.90;4.40;;;;;;;;;;4953523;28;20570;-87
2022/04/28 17:48:58;;;;;;;6.45;3.85;;;;;;;;;;4954056;28;20121;-88
2022/04/28 17:51:37;;;;;;;5.95;3.72;;;;;;;;;;4952829;28;20412;-86
2022/04/28 17:54:05;;;;;;;6.85;3.78;;;;;;;;;;4952479;28;20075;-86
2022/04/28 18:02:03;;;;;;;7.32;3.55;;;;;;;;;;4952594;28;20059;-83
2022/04/28 18:04:32;;;;;;;6.78;3.45;;;;;;;;;;4952382;28;20106;-89
2022/04/28 18:07:00;;;;;;;5.20;3.50;;;;;;;;;;4952262;28;20043;-85
2022/04/28 18:09:27;;;;;;;5.13;3.42;;;;;;;;;;4949069;28;20051;-85
2022/04/28 18:11:54;;;;;;;7.35;3.53;;;;;;;;;;4943864;28;20047;-84
2022/04/28 18:14:22;;;;;;;6.03;3.20;;;;;;;;;;4958597;28;20138;-84
2022/04/28 18:16:53;;;;;;;8.47;3.50;;;;;;;;;;4949216;28;20141;-84
2022/04/28 18:19:21;;;;;;;7.10;3.90;;;;;;;;;;4946225;28;20043;-84
2022/04/28 18:21:48;;;;;;;5.40;3.87;;;;;;;;;;4943260;28;20055;-84
2022/04/28 18:24:15;;;;;;;4.50;3.40;;;;;;;;;;4945385;28;20138;-86
2022/04/28 18:26:44;;;;;;;5.15;3.60;;;;;;;;;;4947095;28;20086;-86
2022/04/28 18:29:25;;;;;;;5.32;3.80;;;;;;;;;;4947066;28;20063;-85
2022/04/28 18:31:52;;;;;;;6.10;3.67;;;;;;;;;;4944434;28;20051;-85
2022/04/28 18:34:19;;;;;;;6.85;3.55;;;;;;;;;;4948407;28;20071;-85
2022/04/28 18:45:05;;;;;;;8.15;4.68;;;;;;;;;;4948187;28;20075;-83
2022/04/28 18:47:32;;;;;;;10.70;4.90;;;;;;;;;;4945298;28;20102;-84
2022/04/28 18:50:00;;;;;;;7.43;4.70;;;;;;;;;;4940541;28;20091;-86
2022/04/28 18:52:29;;;;;;;8.65;4.95;;;;;;;;;;4949484;28;20043;-87
2022/04/28 18:54:59;;;;;;;9.55;5.38;;;;;;;;;;4951644;28;20047;-88
2022/04/28 18:57:27;;;;;;;9.25;5.65;;;;;;;;;;4939694;28;20471;-86
2022/04/28 18:59:54;;;;;;;10.52;5.53;;;;;;;;;;4946433;28;20044;-86
2022/04/28 19:02:24;;;;;;;9.73;4.97;;;;;;;;;;4947640;28;20057;-87
2022/04/28 19:04:51;;;;;;;12.63;5.37;;;;;;;;;;4949302;28;20058;-86
2022/04/28 19:07:19;;;;;;;12.70;5.50;;;;;;;;;;4951412;28;20101;-86
2022/04/28 19:09:47;;;;;;;11.82;5.03;;;;;;;;;;4950692;28;20464;-87
2022/04/28 19:12:14;;;;;;;8.50;5.55;;;;;;;;;;4949298;28;20054;-87
2022/04/28 19:14:59;;;;;;;10.02;5.28;;;;;;;;;;4945517;28;20055;-84
2022/04/28 19:17:29;;;;;;;8.73;5.55;;;;;;;;;;4950226;28;20070;-85
2022/04/28 19:19:58;;;;;;;12.27;5.50;;;;;;;;;;4948478;28;20977;-84
2022/04/28 19:22:25;;;;;;;10.68;5.97;;;;;;;;;;4948080;28;20050;-85
2022/04/28 19:24:54;;;;;;;9.63;5.72;;;;;;;;;;4949992;28;20047;-87
2022/04/28 19:27:22;;;;;;;7.30;5.35;;;;;;;;;;4947686;28;20070;-87
2022/04/28 19:29:49;;;;;;;8.15;5.60;;;;;;;;;;4951121;28;20583;-87
2022/04/28 19:32:17;;;;;;;13.98;6.70;;;;;;;;;;4947691;28;20496;-87
2022/04/28 19:34:45;;;;;;;11.33;6.93;;;;;;;;;;4948023;28;20055;-86
2022/04/28 19:37:13;;;;;;;12.93;7.47;;;;;;;;;;4947968;28;20055;-84
2022/04/28 19:39:42;;;;;;;17.27;7.30;;;;;;;;;;4947425;28;20519;-85
2022/04/28 19:42:09;;;;;;;12.93;7.43;;;;;;;;;;4941227;28;20051;-84
2022/04/28 19:44:38;;;;;;;10.52;7.30;;;;;;;;;;4946369;28;20047;-84
2022/04/28 19:47:07;;;;;;;13.65;7.30;;;;;;;;;;4947046;28;20055;-83
2022/04/28 19:49:36;;;;;;;12.70;7.80;;;;;;;;;;4947792;28;20118;-83
2022/04/28 19:52:06;;;;;;;12.43;8.50;;;;;;;;;;4947233;28;20047;-83
2022/04/28 19:54:33;;;;;;;12.50;7.53;;;;;;;;;;4946981;28;20043;-83
2022/04/28 19:57:00;;;;;;;12.90;7.68;;;;;;;;;;4947580;28;20106;-85
2022/04/28 19:59:27;;;;;;;17.63;8.13;;;;;;;;;;4947365;28;20071;-85
2022/04/28 20:01:54;;;;;;;12.68;8.75;;;;;;;;;;4944314;28;20043;-84
2022/04/28 20:04:22;;;;;;;11.93;8.50;;;;;;;;;;4946290;28;20082;-84
2022/04/28 20:06:49;;;;;;;15.05;8.40;;;;;;;;;;4939602;28;20058;-84
2022/04/28 20:09:17;;;;;;;18.42;8.80;;;;;;;;;;4938900;28;20130;-84
2022/04/28 20:11:44;;;;;;;21.77;9.88;;;;;;;;;;4945212;28;20051;-87
2022/04/28 20:14:13;;;;;;;13.18;9.68;;;;;;;;;;4946237;28;20070;-82
2022/04/28 20:16:41;;;;;;;13.13;8.75;;;;;;;;;;4945881;28;20147;-84
2022/04/28 20:19:08;;;;;;;14.93;9.40;;;;;;;;;;4946061;28;20074;-83
2022/04/28 20:21:34;;;;;;;13.57;9.05;;;;;;;;;;4946147;28;20051;-83
2022/04/28 20:24:02;;;;;;;14.85;10.07;;;;;;;;;;4946659;28;20078;-83
2022/04/28 20:26:28;;;;;;;14.77;10.52;;;;;;;;;;4944333;28;20051;-83
2022/04/28 20:28:55;;;;;;;15.82;10.55;;;;;;;;;;4942841;28;20115;-83
2022/04/28 20:31:22;;;;;;;16.40;10.88;;;;;;;;;;4946835;28;20489;-86
2022/04/28 20:33:51;;;;;;;17.38;10.63;;;;;;;;;;4946418;28;20499;-83
2022/04/28 20:36:19;;;;;;;;;;;;;;;;;;4945776;28;20074;-85
2022/04/28 20:38:46;;;;;;;15.60;11.30;;;;;;;;;;4946724;28;19964;-84
2022/04/28 20:41:14;;;;;;;17.42;11.73;;;;;;;;;;4944478;28;20051;-84
2022/04/28 20:43:41;;;;;;;17.65;12.23;;;;;;;;;;4949531;28;20055;-84
2022/04/28 20:46:09;;;;;;;15.43;12.35;;;;;;;;;;4950898;28;20089;-82
2022/04/28 20:48:36;;;;;;;19.88;12.55;;;;;;;;;;4949199;28;20130;-84
2022/04/28 20:51:04;;;;;;;18.95;12.45;;;;;;;;;;4950150;28;20058;-85
2022/04/28 20:53:32;;;;;;;20.05;13.50;;;;;;;;;;4950570;28;20058;-86
2022/04/28 20:56:01;;;;;;;20.45;13.60;;;;;;;;;;4944768;28;20106;-83
2022/04/28 20:58:27;;;;;;;23.42;13.18;;;;;;;;;;4952796;28;20043;-84
2022/04/28 21:00:54;;;;;;;21.15;14.13;;;;;;;;;;4949654;28;20409;-83
2022/04/28 21:03:21;;;;;;;23.15;14.55;;;;;;;;;;4952082;28;20078;-83
2022/04/28 21:05:48;;;;;;;20.17;14.23;;;;;;;;;;4952576;28;20491;-84
2022/04/28 21:08:16;;;;;;;21.73;14.05;;;;;;;;;;4945447;28;20052;-83
2022/04/28 21:10:44;;;;;;;32.75;15.15;;;;;;;;;;4948757;28;20057;-84
2022/04/28 21:13:11;;;;;;;26.13;15.48;;;;;;;;;;4951042;28;20098;-83
2022/04/28 21:15:38;;;;;;;21.98;14.57;;;;;;;;;;4954199;28;20127;-83
2022/04/28 21:18:05;;;;;;;23.30;14.95;;;;;;;;;;4953382;28;20047;-83
2022/04/28 21:20:33;;;;;;;21.70;15.27;;;;;;;;;;4956430;28;20086;-86